createdAt,value
2022-08-29T09:31:28.491Z,100.00
2022-08-29T09:34:11.704Z,99.27
2022-08-29T09:36:52.374Z,93.27
2022-08-29T09:39:32.134Z,92.99
2022-08-29T09:42:23.768Z,93.79
2022-08-29T09:45:05.791Z,91.67
2022-08-29T09:47:45.790Z,92.99
2022-08-29T09:50:28.651Z,93.44
2022-08-29T09:53:24.411Z,94.14
2022-08-29T09:56:10.157Z,92.76
2022-08-29T09:58:47.274Z,89.46
2022-08-29T10:01:28.548Z,90.89
2022-08-29T10:04:10.779Z,91.28
2022-08-29T10:06:52.763Z,92.48
2022-08-29T10:09:32.046Z,93.48
2022-08-29T10:12:17.595Z,94.72
2022-08-29T10:15:04.725Z,93.70
2022-08-29T10:18:01.947Z,92.83
2022-08-29T10:20:54.280Z,91.51
2022-08-29T10:23:42.049Z,93.95
2022-08-29T10:26:36.851Z,94.39
2022-08-29T10:29:31.762Z,93.55
2022-08-29T10:32:18.857Z,94.47
2022-08-29T10:35:13.302Z,92.23
2022-08-29T10:38:02.827Z,92.53
2022-08-29T10:40:47.950Z,94.07
2022-08-29T10:43:40.178Z,93.09
2022-08-29T10:46:49.339Z,93.47
2022-08-29T10:49:50.931Z,93.26
2022-08-29T10:53:05.089Z,92.35
2022-08-29T10:55:56.422Z,92.90
2022-08-29T10:58:54.866Z,94.07
2022-08-29T11:01:38.928Z,96.20
2022-08-29T11:04:25.249Z,97.78
2022-08-29T11:07:10.026Z,99.90
2022-08-29T11:09:55.633Z,99.90
2022-08-29T11:12:46.171Z,100.00
2022-08-29T11:15:30.335Z,100.00
2022-08-29T11:18:23.099Z,99.18
2022-08-29T11:21:04.315Z,96.31
2022-08-29T11:23:47.778Z,92.63
2022-08-29T11:26:41.169Z,89.85
2022-08-29T11:29:31.120Z,91.14
2022-08-29T11:32:15.751Z,85.80
2022-08-29T11:35:11.420Z,85.84
2022-08-29T11:38:28.489Z,86.15
2022-08-29T11:41:30.365Z,85.03
2022-08-29T11:44:29.080Z,87.32
2022-08-29T11:47:35.713Z,88.13
2022-08-29T11:50:30.947Z,84.86
2022-08-29T11:53:16.774Z,86.09
2022-08-29T11:56:32.486Z,85.99
2022-08-29T11:59:09.449Z,87.13
2022-08-29T12:02:04.615Z,83.79
2022-08-29T12:04:58.613Z,83.56
2022-08-29T12:07:44.073Z,83.90
2022-08-29T12:10:33.452Z,81.98
2022-08-29T12:13:13.955Z,78.33
2022-08-29T12:16:09.574Z,74.39
2022-08-29T12:18:53.187Z,71.39
2022-08-29T12:21:51.091Z,70.16
2022-08-29T12:24:55.183Z,65.19
2022-08-29T12:28:06.194Z,62.27
2022-08-29T12:30:50.216Z,62.62
2022-08-29T12:33:39.731Z,64.01
2022-08-29T12:36:35.842Z,62.00
2022-08-29T12:39:30.770Z,61.98
2022-08-29T12:42:31.911Z,63.87
2022-08-29T12:45:14.998Z,68.36
2022-08-29T12:47:58.252Z,82.65
2022-08-29T12:50:43.992Z,91.35
2022-08-29T12:53:26.583Z,99.44
2022-08-29T12:56:07.103Z,100.00
2022-08-29T12:58:47.553Z,100.00
2022-08-29T13:01:32.088Z,100.00
2022-08-29T13:04:19.973Z,100.00
2022-08-29T13:06:59.686Z,100.00
2022-08-29T13:09:43.980Z,100.00
2022-08-29T13:12:27.550Z,100.00
2022-08-29T13:15:08.162Z,100.00
2022-08-29T13:17:49.189Z,100.00
